createdAt,value
2019-05-10T00:00:12.337Z,24.47
2019-05-10T00:02:58.512Z,25.35
2019-05-10T00:05:44.824Z,24.90
2019-05-10T00:08:30.387Z,26.17
2019-05-10T00:11:33.140Z,26.07
2019-05-10T00:14:29.794Z,27.25
2019-05-10T00:17:14.523Z,26.85
2019-05-10T00:19:42.640Z,27.07
2019-05-10T00:22:11.943Z,26.40
2019-05-10T00:24:40.143Z,27.13
2019-05-10T00:27:08.312Z,27.58
2019-05-10T00:29:36.446Z,27.65
2019-05-10T00:32:04.637Z,27.40
2019-05-10T00:34:32.900Z,26.15
2019-05-10T00:37:02.813Z,27.27
2019-05-10T00:39:30.886Z,27.52
2019-05-10T00:41:59.043Z,28.05
2019-05-10T00:44:27.198Z,28.17
2019-05-10T00:46:55.359Z,28.57
2019-05-10T00:49:23.493Z,27.90
2019-05-10T00:51:52.794Z,28.92
2019-05-10T00:54:20.975Z,29.75
2019-05-10T00:56:49.103Z,28.65
2019-05-10T00:59:17.172Z,27.90
2019-05-10T01:01:45.417Z,28.60
2019-05-10T01:04:13.518Z,28.95
2019-05-10T01:06:41.817Z,29.40
2019-05-10T01:09:11.539Z,28.35
2019-05-10T01:11:39.707Z,28.38
2019-05-10T01:14:07.762Z,29.10
2019-05-10T01:16:35.909Z,28.00
2019-05-10T01:19:03.991Z,29.42
2019-05-10T01:21:32.099Z,27.98
2019-05-10T01:24:00.398Z,27.48
2019-05-10T01:26:28.673Z,30.00
2019-05-10T01:28:56.786Z,28.65
2019-05-10T01:31:24.865Z,30.68
2019-05-10T01:33:52.963Z,29.05
2019-05-10T01:36:22.463Z,28.50
2019-05-10T01:38:50.576Z,28.20
2019-05-10T01:41:21.846Z,28.83
2019-05-10T01:43:49.922Z,28.17
2019-05-10T01:46:18.030Z,28.27
2019-05-10T01:48:46.122Z,27.62
2019-05-10T01:51:14.198Z,29.40
2019-05-10T01:53:42.341Z,28.25
2019-05-10T01:56:10.507Z,28.95
2019-05-10T01:58:38.670Z,28.35
2019-05-10T02:01:06.817Z,29.12
2019-05-10T02:03:34.932Z,23.07
2019-05-10T02:06:03.016Z,23.17
2019-05-10T02:08:31.108Z,23.93
2019-05-10T02:10:59.267Z,23.53
2019-05-10T02:13:27.383Z,21.93
2019-05-10T02:15:55.476Z,22.60
2019-05-10T02:18:23.707Z,22.43
2019-05-10T02:20:51.948Z,22.50
2019-05-10T02:23:20.072Z,21.67
2019-05-10T02:25:48.222Z,22.47
2019-05-10T02:28:16.449Z,21.43
2019-05-10T02:30:44.596Z,24.00
2019-05-10T02:33:12.695Z,22.13
2019-05-10T02:35:40.778Z,22.77
2019-05-10T02:38:08.898Z,22.30
2019-05-10T02:40:36.960Z,22.10
2019-05-10T02:43:05.128Z,22.43
2019-05-10T02:45:33.301Z,22.00
2019-05-10T02:48:01.513Z,22.17
2019-05-10T02:50:29.587Z,22.00
2019-05-10T02:52:57.776Z,22.23
2019-05-10T02:55:26.441Z,21.83
2019-05-10T02:57:54.655Z,23.03
2019-05-10T03:00:22.771Z,22.47
2019-05-10T03:02:52.292Z,23.33
2019-05-10T03:05:20.440Z,22.60
2019-05-10T03:07:50.013Z,22.77
2019-05-10T03:10:18.250Z,21.63
2019-05-10T03:12:47.886Z,21.47
2019-05-10T03:15:16.910Z,20.17
2019-05-10T03:17:46.030Z,22.17
2019-05-10T03:20:14.120Z,21.20
2019-05-10T03:22:42.837Z,21.07
2019-05-10T03:25:10.992Z,21.53
2019-05-10T03:27:39.068Z,20.60
2019-05-10T03:30:07.303Z,19.90
2019-05-10T03:32:35.382Z,19.77
2019-05-10T03:35:03.447Z,19.87
2019-05-10T03:37:31.801Z,19.77
2019-05-10T03:39:59.826Z,20.50
2019-05-10T03:42:27.991Z,20.20
2019-05-10T03:44:56.061Z,20.73
2019-05-10T03:47:24.200Z,20.67
2019-05-10T03:49:52.497Z,21.70
2019-05-10T03:52:20.562Z,20.87
2019-05-10T03:54:48.675Z,20.67
2019-05-10T03:57:16.771Z,22.67
2019-05-10T03:59:44.953Z,22.23
2019-05-10T04:02:13.055Z,21.63
2019-05-10T04:04:41.127Z,23.63
2019-05-10T04:07:09.233Z,23.37
2019-05-10T04:09:37.405Z,22.97
2019-05-10T04:12:05.473Z,24.47
2019-05-10T04:14:35.263Z,24.50
2019-05-10T04:17:03.712Z,24.93
2019-05-10T04:19:31.784Z,25.60
2019-05-10T04:22:00.106Z,24.43
2019-05-10T04:24:28.307Z,24.97
2019-05-10T04:26:56.391Z,24.07
2019-05-10T04:29:24.495Z,22.20
2019-05-10T04:31:52.594Z,14.37
2019-05-10T04:34:20.651Z,14.60
2019-05-10T04:36:48.780Z,13.37
2019-05-10T04:39:16.875Z,11.77
2019-05-10T04:41:44.965Z,11.93
2019-05-10T04:44:13.247Z,10.50
2019-05-10T04:46:41.350Z,10.57
2019-05-10T04:49:09.480Z,10.37
2019-05-10T04:51:37.604Z,9.87
2019-05-10T04:54:05.697Z,8.70
2019-05-10T04:56:33.868Z,8.53
2019-05-10T04:59:02.418Z,9.07
2019-05-10T05:01:30.516Z,8.67
2019-05-10T05:03:58.622Z,8.43
2019-05-10T05:06:26.751Z,9.37
2019-05-10T05:08:54.807Z,9.20
2019-05-10T05:11:22.912Z,9.17
2019-05-10T05:13:51.008Z,8.43
2019-05-10T05:16:19.073Z,8.63
2019-05-10T05:18:47.148Z,8.50
2019-05-10T05:21:15.274Z,8.63
2019-05-10T05:23:43.806Z,8.27
2019-05-10T05:26:11.978Z,8.50
2019-05-10T05:28:40.162Z,9.30
2019-05-10T05:31:08.340Z,8.77
2019-05-10T05:33:36.658Z,8.73
2019-05-10T05:36:04.729Z,8.90
2019-05-10T05:38:32.793Z,8.83
2019-05-10T05:41:01.542Z,8.77
2019-05-10T05:43:29.697Z,9.10
2019-05-10T05:45:57.784Z,9.10
2019-05-10T05:48:39.467Z,9.30
2019-05-10T05:50:55.595Z,8.77
2019-05-10T05:53:23.659Z,9.80
2019-05-10T05:55:51.988Z,9.23
2019-05-10T05:58:26.487Z,9.23
2019-05-10T06:00:49.775Z,8.97
2019-05-10T06:03:27.483Z,9.57
2019-05-10T06:05:47.620Z,9.80
2019-05-10T06:08:23.194Z,9.67
2019-05-10T06:10:56.755Z,9.57
2019-05-10T06:13:15.155Z,10.30
2019-05-10T06:15:43.177Z,9.37
2019-05-10T06:18:12.190Z,10.20
2019-05-10T06:20:44.704Z,10.03
2019-05-10T06:23:10.221Z,10.27
2019-05-10T06:25:42.011Z,10.90
2019-05-10T06:28:25.003Z,9.63
2019-05-10T06:30:37.965Z,10.10
2019-05-10T06:33:12.811Z,10.13
2019-05-10T06:35:35.776Z,11.03
2019-05-10T06:38:03.957Z,9.63
2019-05-10T06:40:37.543Z,10.10
2019-05-10T06:43:06.784Z,9.80
2019-05-10T06:45:33.196Z,9.47
2019-05-10T06:48:01.260Z,9.30
2019-05-10T06:50:31.617Z,8.33
2019-05-10T06:53:00.465Z,7.37
2019-05-10T06:55:28.854Z,8.17
2019-05-10T06:58:00.523Z,9.40
2019-05-10T07:00:26.828Z,7.93
2019-05-10T07:02:54.976Z,7.33
2019-05-10T07:05:23.100Z,7.50
2019-05-10T07:07:51.093Z,6.90
2019-05-10T07:10:24.858Z,7.50
2019-05-10T07:12:48.996Z,7.23
2019-05-10T07:15:17.118Z,7.50
2019-05-10T07:17:47.211Z,6.73
2019-05-10T07:20:15.143Z,7.00
2019-05-10T07:22:43.409Z,6.57
2019-05-10T07:25:11.603Z,6.97
2019-05-10T07:27:39.665Z,6.47
2019-05-10T07:30:08.862Z,6.10
2019-05-10T07:32:36.880Z,7.95
2019-05-10T07:35:05.005Z,7.20
2019-05-10T07:37:33.240Z,7.28
2019-05-10T07:40:03.528Z,6.62
2019-05-10T07:42:31.268Z,6.33
2019-05-10T07:44:59.767Z,6.35
2019-05-10T07:47:30.256Z,6.60
2019-05-10T07:49:57.600Z,6.62
2019-05-10T07:52:25.836Z,6.20
2019-05-10T07:54:53.945Z,6.87
2019-05-10T07:57:24.639Z,6.12
2019-05-10T07:59:51.802Z,6.17
2019-05-10T08:02:19.858Z,6.20
2019-05-10T08:04:51.346Z,5.87
2019-05-10T08:07:18.538Z,6.20
2019-05-10T08:09:48.685Z,5.90
2019-05-10T08:12:19.286Z,5.03
2019-05-10T08:14:51.869Z,4.42
2019-05-10T08:17:15.997Z,5.00
2019-05-10T08:19:44.126Z,4.62
2019-05-10T08:22:12.927Z,4.60
2019-05-10T08:24:44.594Z,5.00
2019-05-10T08:27:14.779Z,4.83
2019-05-10T08:29:42.899Z,3.87
2019-05-10T08:32:12.828Z,4.97
2019-05-10T08:34:51.794Z,4.60
2019-05-10T08:37:12.869Z,4.30
2019-05-10T08:39:45.635Z,4.65
2019-05-10T08:42:30.376Z,4.60
2019-05-10T08:44:42.583Z,4.28
2019-05-10T08:47:15.640Z,4.22
2019-05-10T08:49:52.119Z,5.30
2019-05-10T08:52:12.062Z,5.50
2019-05-10T08:54:39.418Z,5.95
2019-05-10T08:57:07.992Z,5.77
2019-05-10T08:59:36.057Z,6.10
2019-05-10T09:02:04.402Z,6.70
2019-05-10T09:04:42.234Z,6.50
2019-05-10T09:07:02.852Z,6.75
2019-05-10T09:09:33.733Z,6.33
2019-05-10T09:12:06.643Z,6.72
2019-05-10T09:14:32.641Z,6.30
2019-05-10T09:17:03.599Z,6.42
2019-05-10T09:19:37.392Z,6.20
2019-05-10T09:22:01.858Z,5.83
2019-05-10T09:24:29.587Z,5.70
2019-05-10T09:26:57.843Z,6.30
2019-05-10T09:29:27.298Z,5.70
2019-05-10T09:31:55.760Z,5.30
2019-05-10T09:34:27.064Z,5.47
2019-05-10T09:36:53.570Z,5.10
2019-05-10T09:39:24.849Z,4.85
2019-05-10T09:41:52.774Z,5.20
2019-05-10T09:44:22.893Z,5.00
2019-05-10T09:46:52.649Z,4.47
2019-05-10T09:49:22.990Z,5.10
2019-05-10T09:51:52.742Z,4.90
2019-05-10T09:54:23.283Z,4.30
2019-05-10T09:56:52.176Z,4.45
2019-05-10T09:59:19.799Z,4.30
2019-05-10T10:01:48.448Z,4.78
2019-05-10T10:04:17.890Z,4.53
2019-05-10T10:06:48.181Z,4.17
2019-05-10T10:09:17.189Z,4.90
2019-05-10T10:11:48.087Z,4.35
2019-05-10T10:14:17.771Z,4.70
2019-05-10T10:16:49.319Z,4.45
2019-05-10T10:19:14.510Z,5.10
2019-05-10T10:21:42.624Z,4.37
2019-05-10T10:24:15.481Z,4.22
2019-05-10T10:26:41.882Z,4.78
2019-05-10T10:29:10.000Z,4.08
2019-05-10T10:31:48.292Z,4.30
2019-05-10T10:34:08.231Z,4.40
2019-05-10T10:36:40.165Z,4.30
2019-05-10T10:39:07.500Z,4.08
2019-05-10T10:41:35.646Z,3.60
2019-05-10T10:44:03.753Z,3.70
2019-05-10T10:46:34.489Z,3.80
2019-05-10T10:49:02.424Z,3.40
2019-05-10T10:51:32.133Z,3.62
2019-05-10T10:54:00.816Z,3.40
2019-05-10T10:56:28.970Z,3.10
2019-05-10T10:58:58.177Z,3.10
2019-05-10T11:01:33.224Z,3.40
2019-05-10T11:03:56.507Z,3.22
2019-05-10T11:06:24.568Z,3.12
2019-05-10T11:08:52.674Z,3.15
2019-05-10T11:11:20.851Z,2.70
2019-05-10T11:13:57.990Z,2.72
2019-05-10T11:16:20.740Z,2.87
2019-05-10T11:18:51.719Z,2.72
2019-05-10T11:21:18.577Z,3.00
2019-05-10T11:23:46.663Z,2.80
2019-05-10T11:26:14.848Z,2.90
2019-05-10T11:28:44.334Z,2.90
2019-05-10T11:31:12.488Z,3.08
2019-05-10T11:33:41.423Z,2.80
2019-05-10T11:36:11.491Z,3.10
2019-05-10T11:38:41.774Z,2.77
2019-05-10T11:41:13.543Z,3.00
2019-05-10T11:43:41.762Z,3.20
2019-05-10T11:46:11.573Z,2.90
2019-05-10T11:48:41.943Z,2.70
2019-05-10T11:51:12.439Z,3.12
2019-05-10T11:53:41.190Z,2.83
2019-05-10T11:56:14.097Z,2.95
2019-05-10T11:58:49.828Z,2.60
2019-05-10T12:01:14.684Z,2.70
2019-05-10T12:03:37.799Z,2.30
2019-05-10T12:06:08.944Z,2.45
2019-05-10T12:08:35.669Z,2.12
2019-05-10T12:13:33.501Z,2.50
2019-05-10T12:16:01.555Z,2.30
2019-05-10T12:18:32.347Z,2.10
2019-05-10T12:21:09.008Z,2.35
2019-05-10T12:23:31.686Z,2.52
2019-05-10T12:26:06.386Z,2.20
2019-05-10T12:27:13.420Z,2.30
2019-05-10T12:28:34.970Z,2.37
2019-05-10T12:31:01.437Z,2.60
2019-05-10T12:33:29.014Z,2.45
2019-05-10T12:35:57.128Z,2.03
2019-05-10T12:38:29.805Z,2.20
2019-05-10T12:40:54.898Z,2.65
2019-05-10T12:43:23.030Z,2.50
2019-05-10T12:45:51.779Z,2.30
2019-05-10T12:48:23.155Z,2.60
2019-05-10T12:50:52.270Z,2.60
2019-05-10T12:53:21.483Z,2.30
2019-05-10T12:55:49.734Z,2.40
2019-05-10T12:58:17.935Z,2.50
2019-05-10T13:00:51.650Z,2.67
2019-05-10T13:03:18.992Z,2.50
2019-05-10T13:05:52.349Z,2.65
2019-05-10T13:08:15.595Z,2.60
2019-05-10T13:10:47.398Z,2.70
2019-05-10T13:13:17.666Z,2.80
2019-05-10T13:15:43.175Z,2.85
2019-05-10T13:18:11.255Z,4.65
2019-05-10T13:20:39.368Z,3.03
2019-05-10T13:23:10.136Z,5.97
2019-05-10T13:25:37.264Z,3.60
2019-05-10T13:28:11.075Z,3.20
2019-05-10T13:30:35.301Z,3.80
2019-05-10T13:33:03.421Z,3.00
2019-05-10T13:35:31.481Z,3.00
2019-05-10T13:38:03.955Z,2.90
2019-05-10T13:40:29.361Z,3.30
2019-05-10T13:42:59.262Z,5.10
2019-05-10T13:45:31.764Z,3.35
2019-05-10T13:47:57.126Z,3.70
2019-05-10T13:50:25.243Z,3.42
2019-05-10T13:52:53.407Z,3.10
2019-05-10T13:55:21.507Z,4.33
2019-05-10T13:57:49.721Z,3.60
2019-05-10T14:00:18.100Z,3.45
2019-05-10T14:02:46.191Z,3.25
2019-05-10T14:05:17.554Z,3.67
2019-05-10T14:07:51.023Z,3.60
2019-05-10T14:10:18.223Z,3.55
2019-05-10T14:12:43.725Z,3.80
2019-05-10T14:15:13.700Z,4.00
2019-05-10T14:17:41.798Z,3.50
2019-05-10T14:20:19.669Z,3.22
2019-05-10T14:22:39.805Z,3.65
2019-05-10T14:25:08.202Z,3.72
2019-05-10T14:27:38.371Z,3.70
2019-05-10T14:30:07.190Z,3.72
2019-05-10T14:32:36.812Z,3.80
2019-05-10T14:35:05.104Z,3.67
2019-05-10T14:37:33.175Z,3.60
2019-05-10T14:40:01.263Z,3.75
2019-05-10T14:42:31.452Z,4.00
2019-05-10T14:44:59.133Z,4.00
2019-05-10T14:47:27.215Z,4.20
2019-05-10T14:49:55.297Z,3.60
2019-05-10T14:52:23.412Z,4.10
2019-05-10T14:54:55.414Z,3.75
2019-05-10T14:57:21.287Z,3.75
2019-05-10T14:59:49.391Z,3.70
2019-05-10T15:02:22.940Z,3.55
2019-05-10T15:04:47.402Z,3.80
2019-05-10T15:07:16.630Z,3.73
2019-05-10T15:09:44.883Z,3.90
2019-05-10T15:12:16.450Z,3.85
2019-05-10T15:14:43.011Z,3.60
2019-05-10T15:17:11.093Z,3.70
2019-05-10T15:19:39.153Z,3.83
2019-05-10T15:22:07.302Z,4.05
2019-05-10T15:24:35.362Z,3.92
2019-05-10T15:27:03.577Z,3.60
2019-05-10T15:29:31.640Z,4.20
2019-05-10T15:31:59.857Z,3.72
2019-05-10T15:34:27.952Z,4.00
2019-05-10T15:36:56.109Z,4.00
2019-05-10T15:39:28.976Z,3.75
2019-05-10T15:41:58.925Z,3.87
2019-05-10T15:44:30.337Z,3.50
2019-05-10T15:46:53.443Z,3.80
2019-05-10T15:49:24.367Z,3.75
2019-05-10T15:54:22.342Z,3.83
2019-05-10T15:56:50.571Z,4.12
2019-05-10T15:59:21.135Z,3.80
2019-05-10T15:59:23.402Z,3.90
2019-05-10T16:01:48.665Z,4.00
2019-05-10T16:04:16.724Z,3.77
2019-05-10T16:06:44.800Z,4.00
2019-05-10T16:09:17.382Z,3.60
2019-05-10T16:11:42.692Z,3.70
2019-05-10T16:14:10.883Z,3.77
2019-05-10T16:16:39.751Z,4.00
2019-05-10T16:19:12.760Z,4.08
2019-05-10T16:21:37.795Z,4.28
2019-05-10T16:24:06.718Z,3.80
2019-05-10T16:26:34.965Z,3.67
2019-05-10T16:29:03.509Z,3.72
2019-05-10T16:31:31.855Z,4.67
2019-05-10T16:34:00.023Z,4.00
2019-05-10T16:36:29.834Z,3.87
2019-05-10T16:39:01.329Z,3.50
2019-05-10T16:41:27.613Z,3.60
2019-05-10T16:43:57.788Z,3.58
2019-05-10T16:46:25.636Z,3.60
2019-05-10T16:48:53.756Z,3.70
2019-05-10T16:51:23.092Z,3.90
2019-05-10T16:53:51.145Z,3.85
2019-05-10T16:56:21.208Z,4.05
2019-05-10T16:58:52.972Z,3.92
2019-05-10T17:01:24.845Z,3.77
2019-05-10T17:03:51.027Z,4.00
2019-05-10T17:06:18.286Z,3.52
2019-05-10T17:08:46.613Z,3.70
2019-05-10T17:11:14.762Z,3.83
2019-05-10T17:13:43.280Z,3.98
2019-05-10T17:16:16.388Z,3.72
2019-05-10T17:18:41.311Z,3.72
2019-05-10T17:21:09.513Z,3.52
2019-05-10T17:23:41.557Z,3.85
2019-05-10T17:26:08.502Z,3.17
2019-05-10T17:28:37.447Z,3.40
2019-05-10T17:31:07.577Z,3.40
2019-05-10T17:33:36.784Z,3.90
2019-05-10T17:36:08.517Z,3.60
2019-05-10T17:38:35.105Z,3.60
2019-05-10T17:41:03.180Z,4.03
2019-05-10T17:43:34.277Z,4.13
2019-05-10T17:46:02.406Z,3.62
2019-05-10T17:48:31.946Z,3.80
2019-05-10T17:51:00.074Z,4.22
2019-05-10T17:53:28.184Z,4.35
2019-05-10T17:56:01.751Z,4.53
2019-05-10T17:58:27.812Z,5.67
2019-05-10T18:00:55.874Z,5.13
2019-05-10T18:03:24.072Z,4.72
2019-05-10T18:05:53.472Z,4.60
2019-05-10T18:08:21.744Z,4.20
2019-05-10T18:10:50.066Z,4.40
2019-05-10T18:13:19.494Z,4.25
2019-05-10T18:15:47.612Z,4.12
2019-05-10T18:18:15.769Z,4.20
2019-05-10T18:20:44.616Z,4.15
2019-05-10T18:23:20.488Z,4.25
2019-05-10T18:25:42.857Z,4.20
2019-05-10T18:28:10.969Z,4.30
2019-05-10T18:30:39.128Z,4.17
2019-05-10T18:33:12.301Z,4.30
2019-05-10T18:35:37.312Z,4.33
2019-05-10T18:38:05.447Z,4.40
2019-05-10T18:40:33.633Z,4.35
2019-05-10T18:43:05.911Z,3.90
2019-05-10T18:45:34.224Z,4.37
2019-05-10T18:48:02.449Z,4.60
2019-05-10T18:50:30.568Z,5.15
2019-05-10T18:52:58.760Z,5.10
2019-05-10T18:55:27.560Z,5.45
2019-05-10T18:57:55.686Z,5.00
2019-05-10T19:00:25.344Z,4.70
2019-05-10T19:02:55.092Z,4.78
2019-05-10T19:05:25.163Z,4.50
2019-05-10T19:08:03.142Z,4.57
2019-05-10T19:10:23.357Z,4.75
2019-05-10T19:13:01.271Z,4.63
2019-05-10T19:15:24.320Z,5.33
2019-05-10T19:17:53.443Z,5.45
2019-05-10T19:20:21.558Z,7.42
2019-05-10T19:22:50.876Z,8.48
2019-05-10T19:25:18.939Z,10.55
2019-05-10T19:27:50.856Z,18.30
2019-05-10T19:30:20.568Z,36.77
2019-05-10T19:32:50.938Z,27.90
2019-05-10T19:35:18.534Z,26.57
2019-05-10T19:37:46.801Z,23.80
2019-05-10T19:40:17.242Z,24.65
2019-05-10T19:42:49.134Z,27.20
2019-05-10T19:45:19.369Z,16.62
2019-05-10T19:47:49.862Z,18.87
2019-05-10T19:50:15.270Z,18.00
2019-05-10T19:52:43.420Z,16.35
2019-05-10T19:55:12.953Z,15.83
2019-05-10T19:57:41.484Z,13.60
2019-05-10T20:00:09.910Z,11.20
2019-05-10T20:02:38.348Z,11.10
2019-05-10T20:05:06.830Z,8.53
2019-05-10T20:07:45.220Z,10.08
2019-05-10T20:10:07.836Z,9.40
2019-05-10T20:12:36.358Z,10.05
2019-05-10T20:15:04.772Z,9.83
2019-05-10T20:17:33.112Z,7.37
2019-05-10T20:20:01.379Z,6.95
2019-05-10T20:22:30.461Z,6.78
2019-05-10T20:24:58.549Z,6.27
2019-05-10T20:27:26.692Z,6.30
2019-05-10T20:29:54.927Z,5.70
2019-05-10T20:32:24.184Z,5.95
2019-05-10T20:34:52.353Z,5.45
2019-05-10T20:37:20.726Z,6.10
2019-05-10T20:39:49.049Z,5.87
2019-05-10T20:42:17.541Z,6.37
2019-05-10T20:44:45.672Z,5.90
2019-05-10T20:47:13.924Z,6.15
2019-05-10T20:49:42.077Z,6.20
2019-05-10T20:52:10.573Z,6.37
2019-05-10T20:54:38.821Z,6.10
2019-05-10T20:57:07.148Z,6.40
2019-05-10T20:59:35.296Z,6.62
2019-05-10T21:02:03.369Z,6.25
2019-05-10T21:04:31.461Z,5.72
2019-05-10T21:06:59.597Z,5.92
2019-05-10T21:09:27.694Z,5.33
2019-05-10T21:11:55.881Z,5.58
2019-05-10T21:14:24.337Z,5.70
2019-05-10T21:16:52.510Z,5.40
2019-05-10T21:19:20.792Z,5.65
2019-05-10T21:21:49.080Z,5.20
2019-05-10T21:24:17.180Z,5.15
2019-05-10T21:26:45.344Z,5.28
2019-05-10T21:29:13.593Z,5.20
2019-05-10T21:31:41.687Z,5.30
2019-05-10T21:34:10.380Z,5.25
2019-05-10T21:36:38.587Z,5.20
2019-05-10T21:39:07.479Z,5.33
2019-05-10T21:41:35.792Z,5.20
2019-05-10T21:44:03.882Z,5.10
2019-05-10T21:46:31.999Z,5.10
2019-05-10T21:49:00.076Z,5.10
2019-05-10T21:51:28.158Z,5.05
2019-05-10T21:53:56.499Z,5.47
2019-05-10T21:56:24.583Z,5.47
2019-05-10T21:58:54.546Z,4.90
2019-05-10T22:01:22.730Z,5.62
2019-05-10T22:03:50.804Z,4.70
2019-05-10T22:06:18.916Z,5.45
2019-05-10T22:08:49.326Z,5.40
2019-05-10T22:11:16.986Z,5.30
2019-05-10T22:13:45.099Z,5.50
2019-05-10T22:16:13.235Z,5.33
2019-05-10T22:18:41.653Z,5.97
2019-05-10T22:21:09.876Z,5.37
2019-05-10T22:23:38.046Z,5.60
2019-05-10T22:26:06.106Z,5.62
2019-05-10T22:28:34.253Z,5.37
2019-05-10T22:31:02.469Z,5.90
2019-05-10T22:33:30.721Z,5.70
2019-05-10T22:35:58.918Z,5.47
2019-05-10T22:38:27.001Z,6.12
2019-05-10T22:40:55.095Z,6.20
2019-05-10T22:43:23.208Z,6.10
2019-05-10T22:45:51.396Z,6.20
2019-05-10T22:48:19.470Z,6.50
2019-05-10T22:50:47.572Z,6.03
2019-05-10T22:53:15.697Z,6.47
2019-05-10T22:55:43.799Z,6.50
2019-05-10T22:58:11.903Z,6.30
2019-05-10T23:00:40.099Z,6.35
2019-05-10T23:03:08.217Z,6.28
2019-05-10T23:05:36.360Z,6.15
2019-05-10T23:08:04.426Z,6.05
2019-05-10T23:10:32.506Z,6.30
2019-05-10T23:13:00.599Z,6.83
2019-05-10T23:15:28.699Z,6.55
2019-05-10T23:17:56.811Z,7.00
2019-05-10T23:20:24.870Z,6.60
2019-05-10T23:22:52.990Z,6.72
2019-05-10T23:25:21.043Z,7.08
2019-05-10T23:27:49.182Z,6.97
2019-05-10T23:30:17.454Z,7.15
2019-05-10T23:32:45.641Z,7.22
2019-05-10T23:35:13.710Z,7.03
2019-05-10T23:37:41.893Z,7.20
2019-05-10T23:40:10.169Z,6.60
2019-05-10T23:42:38.463Z,6.60
2019-05-10T23:45:06.945Z,6.65
2019-05-10T23:47:35.022Z,6.95
2019-05-10T23:50:04.358Z,6.97
2019-05-10T23:52:32.433Z,7.10
2019-05-10T23:55:00.510Z,7.17
2019-05-10T23:57:29.738Z,6.80
2019-05-10T23:59:57.827Z,7.20
